createdAt,value
2022-12-03T09:27:52.962Z,101051.63
2022-12-03T09:29:55.633Z,101051.63
2022-12-03T09:31:57.915Z,101065.84
2022-12-03T09:34:01.944Z,101079.78
2022-12-03T09:36:04.857Z,101093.38
2022-12-03T09:38:07.433Z,101085.19
2022-12-03T09:40:11.256Z,101095.47
2022-12-03T09:42:15.324Z,101102.91
2022-12-03T09:44:18.412Z,101117.56
2022-12-03T09:46:22.749Z,101117.72
2022-12-03T09:48:26.181Z,101118.22
2022-12-03T09:50:28.800Z,101117.06
2022-12-03T09:52:34.071Z,101122.81
2022-12-03T09:54:42.803Z,101143.41
2022-12-03T09:56:55.682Z,101143.78
2022-12-03T09:58:58.392Z,101153.53
2022-12-03T10:01:00.905Z,101160.34
2022-12-03T10:03:06.161Z,101166.88
2022-12-03T10:05:09.096Z,101185.66
2022-12-03T10:07:12.900Z,101193.16
2022-12-03T10:09:22.277Z,101209.41
2022-12-03T10:11:25.664Z,101226.34
2022-12-03T10:13:30.819Z,101225.34
2022-12-03T10:15:33.534Z,101219.59
2022-12-03T10:17:35.822Z,101228.44
2022-12-03T10:19:39.603Z,101233.31
2022-12-03T10:21:42.220Z,101230.44
2022-12-03T10:23:49.571Z,101216.66
2022-12-03T10:25:56.179Z,101222.47
2022-12-03T10:28:00.978Z,101220.31
2022-12-03T10:30:14.373Z,101217.44
2022-12-03T10:32:16.614Z,101214.84
2022-12-03T10:34:33.906Z,101216.16
2022-12-03T10:36:36.419Z,101212.41
2022-12-03T10:38:38.686Z,101217.16
2022-12-03T10:40:41.216Z,101210.06
2022-12-03T10:42:43.540Z,101207.34
2022-12-03T10:44:46.139Z,101220.50
2022-12-03T10:47:13.472Z,101228.28
2022-12-03T10:49:19.620Z,101229.34
2022-12-03T10:51:22.220Z,101221.91
2022-12-03T10:53:28.688Z,101221.34
2022-12-03T10:55:39.075Z,101218.66
2022-12-03T10:57:45.567Z,101214.28
2022-12-03T10:59:48.747Z,101211.28
2022-12-03T11:01:52.224Z,101223.13
2022-12-03T11:04:02.202Z,101221.09
2022-12-03T11:06:04.968Z,101223.44
2022-12-03T11:08:15.994Z,101216.75
2022-12-03T11:10:19.918Z,101215.47
2022-12-03T11:12:25.509Z,101209.97
2022-12-03T11:14:56.651Z,101209.63
2022-12-03T11:16:59.108Z,101206.63
2022-12-03T11:19:03.662Z,101228.75
2022-12-03T11:21:08.796Z,101273.47
2022-12-03T11:23:11.069Z,101283.16
2022-12-03T11:25:25.598Z,101298.75
2022-12-03T11:27:27.981Z,101309.28
2022-12-03T11:29:52.019Z,101321.63
2022-12-03T11:31:54.590Z,101305.53
2022-12-03T11:34:18.860Z,101311.09
2022-12-03T11:36:36.525Z,101320.81
2022-12-03T11:38:54.024Z,101308.88
2022-12-03T11:41:11.771Z,101308.91
2022-12-03T11:43:14.332Z,101313.97
2022-12-03T11:45:30.725Z,101308.91
2022-12-03T11:47:34.531Z,101319.62
2022-12-03T11:49:44.415Z,101320.63
2022-12-03T11:51:47.128Z,101325.41
2022-12-03T11:53:51.248Z,101320.91
2022-12-03T11:56:08.587Z,101323.50
2022-12-03T11:58:26.924Z,101311.53
2022-12-03T12:00:29.503Z,101287.28
2022-12-03T12:02:32.145Z,101280.19
2022-12-03T12:04:38.099Z,101279.09
2022-12-03T12:06:42.752Z,101264.47
2022-12-03T12:08:51.267Z,101255.53
2022-12-03T12:10:53.743Z,101254.22
2022-12-03T12:12:57.371Z,101250.69
2022-12-03T12:14:59.951Z,101239.69
2022-12-03T12:17:03.714Z,101220.03
2022-12-03T12:19:34.112Z,101216.28
2022-12-03T12:21:50.011Z,101216.75
2022-12-03T12:23:52.249Z,101207.31
2022-12-03T12:26:06.314Z,101207.53
2022-12-03T12:28:08.919Z,101195.91
2022-12-03T12:30:18.369Z,101193.06
2022-12-03T12:32:25.415Z,101186.84
2022-12-03T12:34:28.120Z,101191.78
2022-12-03T12:36:32.116Z,101184.12
2022-12-03T12:38:34.383Z,101166.06
2022-12-03T12:40:40.102Z,101149.94
2022-12-03T12:43:12.614Z,101138.75
2022-12-03T12:45:29.690Z,101143.16
2022-12-03T12:47:32.515Z,101151.50
2022-12-03T12:49:34.789Z,101147.91
2022-12-03T12:51:42.941Z,101138.03
2022-12-03T12:53:45.518Z,101127.56
2022-12-03T12:55:58.572Z,101112.78
2022-12-03T12:58:03.778Z,101105.81
2022-12-03T13:00:07.001Z,101087.91
2022-12-03T13:02:31.981Z,101084.28
2022-12-03T13:04:39.986Z,101089.91
2022-12-03T13:06:43.628Z,101086.84
2022-12-03T13:08:48.965Z,101083.75
2022-12-03T13:10:54.304Z,101071.84
2022-12-03T13:12:57.690Z,101059.97
2022-12-03T13:15:00.975Z,101072.53
2022-12-03T13:17:15.555Z,101074.56
2022-12-03T13:19:26.371Z,101078.22
2022-12-03T13:21:38.595Z,101084.06
2022-12-03T13:23:41.254Z,101089.00
2022-12-03T13:26:00.511Z,101090.75
2022-12-03T13:28:08.010Z,101092.09
2022-12-03T13:30:18.947Z,101079.94
2022-12-03T13:32:27.653Z,101080.59
2022-12-03T13:34:33.869Z,101078.09
2022-12-03T13:36:42.113Z,101083.19
2022-12-03T13:38:44.796Z,101089.91
2022-12-03T13:40:54.925Z,101088.50
2022-12-03T13:42:58.235Z,101090.00
2022-12-03T13:45:02.159Z,101083.59
2022-12-03T13:47:20.697Z,101070.97
2022-12-03T13:49:24.348Z,101075.91
2022-12-03T13:51:29.875Z,101075.13
2022-12-03T13:53:36.863Z,101071.69
2022-12-03T13:55:44.980Z,101063.72
2022-12-03T13:57:47.512Z,101073.38
2022-12-03T13:59:49.936Z,101070.19
2022-12-03T14:01:52.319Z,101062.31
2022-12-03T14:03:55.233Z,101059.84
2022-12-03T14:05:57.477Z,101059.06
2022-12-03T14:08:02.266Z,101048.47
2022-12-03T14:10:07.189Z,101057.50
2022-12-03T14:12:29.022Z,101067.22
2022-12-03T14:14:32.331Z,101060.56
2022-12-03T14:16:34.853Z,101067.44
2022-12-03T14:18:37.186Z,101054.03
2022-12-03T14:20:39.416Z,101058.22
2022-12-03T14:22:42.256Z,101044.47
2022-12-03T14:24:44.822Z,101051.41
2022-12-03T14:26:47.031Z,101050.13
2022-12-03T14:28:49.552Z,101048.75
2022-12-03T14:30:51.889Z,101046.91
2022-12-03T14:32:54.240Z,101052.16
2022-12-03T14:34:57.046Z,101050.41
2022-12-03T14:36:59.331Z,101045.34
2022-12-03T14:39:01.631Z,101049.19
2022-12-03T14:41:04.197Z,101048.84
2022-12-03T14:43:06.384Z,101052.31
2022-12-03T14:45:09.394Z,101056.28
2022-12-03T14:47:12.963Z,101043.06
2022-12-03T14:49:15.217Z,101046.41
2022-12-03T14:51:17.504Z,101046.41
2022-12-03T14:53:24.207Z,101045.72
2022-12-03T14:55:29.458Z,101038.69
2022-12-03T14:57:31.787Z,101032.94
2022-12-03T14:59:34.561Z,101036.16
2022-12-03T15:01:36.875Z,101036.31
2022-12-03T15:03:39.147Z,101033.75
2022-12-03T15:05:41.904Z,101032.09
2022-12-03T15:07:44.318Z,101036.38
2022-12-03T15:09:46.584Z,101032.03
2022-12-03T15:11:49.217Z,101029.59
2022-12-03T15:13:51.471Z,101032.94
2022-12-03T15:15:53.752Z,101034.78
2022-12-03T15:17:56.276Z,101029.72
2022-12-03T15:19:58.548Z,101023.56
2022-12-03T15:22:00.807Z,101015.50
2022-12-03T15:24:04.168Z,101014.41
2022-12-03T15:26:06.575Z,101010.94
2022-12-03T15:28:08.870Z,101015.28
2022-12-03T15:30:11.423Z,101011.19
2022-12-03T15:32:15.267Z,101014.03
2022-12-03T15:34:22.534Z,101008.91
2022-12-03T15:36:25.805Z,101007.13
2022-12-03T15:38:28.065Z,101002.91
2022-12-03T15:40:30.738Z,100998.03
2022-12-03T15:42:33.554Z,100996.59
2022-12-03T15:44:35.914Z,100990.63
2022-12-03T15:46:38.568Z,100989.53
2022-12-03T15:48:41.493Z,100982.69
2022-12-03T15:50:43.759Z,100982.84
2022-12-03T15:52:46.087Z,100978.53
2022-12-03T15:54:49.791Z,100971.41
2022-12-03T15:56:57.031Z,100968.97
2022-12-03T15:59:00.278Z,100965.66
2022-12-03T16:01:03.255Z,100961.03
2022-12-03T16:03:05.943Z,100968.16
2022-12-03T16:05:13.027Z,100962.28
2022-12-03T16:07:16.028Z,100958.03
2022-12-03T16:09:23.652Z,100957.91
2022-12-03T16:11:29.444Z,100953.81
2022-12-03T16:13:31.746Z,100952.88
2022-12-03T16:15:35.682Z,100957.97
2022-12-03T16:17:38.060Z,100952.09
2022-12-03T16:19:40.314Z,100957.34
2022-12-03T16:21:42.849Z,100958.13
2022-12-03T16:23:45.154Z,100966.19
2022-12-03T16:25:47.486Z,100962.78
2022-12-03T16:27:50.127Z,100961.38
2022-12-03T16:29:52.678Z,100968.63
2022-12-03T16:31:55.713Z,100960.94
2022-12-03T16:33:58.359Z,100959.97
2022-12-03T16:36:00.655Z,100951.31
2022-12-03T16:38:02.896Z,100954.12
2022-12-03T16:40:06.574Z,100950.59
2022-12-03T16:42:14.241Z,100955.41
2022-12-03T16:44:32.968Z,100958.13
2022-12-03T16:46:35.837Z,100959.91
2022-12-03T16:48:39.025Z,100959.97
2022-12-03T16:50:41.359Z,100956.44
2022-12-03T16:52:43.912Z,100956.63
2022-12-03T16:54:46.206Z,100958.25
2022-12-03T16:56:48.442Z,100958.13
2022-12-03T16:58:51.134Z,100962.34
2022-12-03T17:00:54.431Z,100967.72
2022-12-03T17:02:56.815Z,100962.53
2022-12-03T17:04:59.973Z,100959.94
2022-12-03T17:07:02.659Z,100959.91
2022-12-03T17:09:05.101Z,100957.38
2022-12-03T17:11:08.068Z,100963.59
2022-12-03T17:13:10.961Z,100960.94
2022-12-03T17:15:13.902Z,100963.53
2022-12-03T17:17:16.712Z,100965.09
2022-12-03T17:19:19.523Z,100963.47
2022-12-03T17:21:21.816Z,100958.31
2022-12-03T17:23:24.324Z,100960.06
2022-12-03T17:25:27.845Z,100951.28
2022-12-03T17:27:30.615Z,100962.00
2022-12-03T17:29:33.242Z,100961.94
2022-12-03T17:31:41.619Z,100958.63
2022-12-03T17:33:44.935Z,100961.12
2022-12-03T17:35:47.507Z,100959.63
2022-12-03T17:37:49.771Z,100956.22
2022-12-03T17:39:53.014Z,100951.81
2022-12-03T17:41:55.642Z,100957.09
2022-12-03T17:43:58.024Z,100956.22
2022-12-03T17:46:00.386Z,100945.06
2022-12-03T17:48:03.713Z,100944.12
2022-12-03T17:50:07.984Z,100945.22
2022-12-03T17:52:10.590Z,100938.31
2022-12-03T17:54:15.861Z,100934.97
2022-12-03T17:56:18.504Z,100934.19
2022-12-03T17:58:20.898Z,100937.06
2022-12-03T18:00:23.493Z,100931.03
2022-12-03T18:02:25.996Z,100930.06
2022-12-03T18:04:28.298Z,100935.91
2022-12-03T18:06:30.640Z,100929.91
2022-12-03T18:08:33.183Z,100929.09
2022-12-03T18:10:35.752Z,100922.13
2022-12-03T18:12:38.300Z,100929.88
2022-12-03T18:14:40.956Z,100933.38
2022-12-03T18:16:43.267Z,100928.28
2022-12-03T18:18:46.696Z,100925.66
2022-12-03T18:20:50.347Z,100927.41
2022-12-03T18:22:53.137Z,100924.13
2022-12-03T18:24:55.663Z,100921.72
2022-12-03T18:26:58.391Z,100911.22
2022-12-03T18:29:01.503Z,100921.56
2022-12-03T18:31:07.141Z,100911.41
2022-12-03T18:33:10.232Z,100917.38
2022-12-03T18:35:12.932Z,100907.94
2022-12-03T18:37:16.275Z,100915.53
2022-12-03T18:39:26.896Z,100914.59
2022-12-03T18:41:29.818Z,100911.87
2022-12-03T18:43:32.633Z,100915.37
2022-12-03T18:45:35.760Z,100919.72
2022-12-03T18:47:39.362Z,100918.91
2022-12-03T18:49:43.354Z,100924.87
2022-12-03T18:51:48.129Z,100929.53
2022-12-03T18:53:51.661Z,100925.84
2022-12-03T18:55:54.372Z,100924.91
2022-12-03T18:57:57.062Z,100918.91
2022-12-03T19:00:00.200Z,100921.47
2022-12-03T19:02:03.422Z,100922.19
2022-12-03T19:04:06.233Z,100930.62
2022-12-03T19:06:20.566Z,100932.44
2022-12-03T19:08:23.918Z,100933.31
2022-12-03T19:10:28.101Z,100923.06
2022-12-03T19:12:31.637Z,100926.34
2022-12-03T19:14:35.727Z,100929.06
2022-12-03T19:16:40.362Z,100928.31
2022-12-03T19:18:44.083Z,100930.03
2022-12-03T19:20:47.032Z,100935.00
2022-12-03T19:22:51.209Z,100933.50
2022-12-03T19:24:54.033Z,100942.19
2022-12-03T19:26:56.844Z,100931.69
2022-12-03T19:28:59.984Z,100931.63
2022-12-03T19:31:05.413Z,100933.56
2022-12-03T19:33:07.703Z,100941.53
2022-12-03T19:35:11.613Z,100936.31
2022-12-03T19:37:14.447Z,100942.47
2022-12-03T19:39:17.496Z,100930.12
2022-12-03T19:41:20.823Z,100936.16
2022-12-03T19:43:23.871Z,100943.88
2022-12-03T19:45:27.944Z,100939.81
2022-12-03T19:47:32.729Z,100943.03
2022-12-03T19:49:35.394Z,100947.34
2022-12-03T19:51:38.362Z,100944.66
2022-12-03T19:53:41.847Z,100958.53
2022-12-03T19:55:45.793Z,100952.50
2022-12-03T19:57:49.451Z,100959.53
2022-12-03T19:59:55.732Z,100956.06
2022-12-03T20:01:59.581Z,100954.53
2022-12-03T20:04:04.223Z,100958.75
2022-12-03T20:06:09.179Z,100949.25
2022-12-03T20:08:11.695Z,100955.22
2022-12-03T20:10:15.662Z,100941.19
2022-12-03T20:12:18.311Z,100951.66
2022-12-03T20:14:20.627Z,100952.44
2022-12-03T20:16:26.931Z,100956.84
2022-12-03T20:18:30.830Z,100960.25
2022-12-03T20:20:33.212Z,100958.09
2022-12-03T20:22:36.120Z,100959.03
2022-12-03T20:24:38.891Z,100971.25
2022-12-03T20:26:42.112Z,100962.84
2022-12-03T20:28:45.419Z,100967.16
2022-12-03T20:31:01.040Z,100961.25
2022-12-03T20:33:03.777Z,100967.19
2022-12-03T20:35:06.697Z,100960.97
2022-12-03T20:37:09.328Z,100949.88
2022-12-03T20:39:12.451Z,100953.22
2022-12-03T20:41:25.462Z,100967.09
2022-12-03T20:43:29.243Z,100961.97
2022-12-03T20:45:32.013Z,100965.41
2022-12-03T20:47:35.049Z,100953.22
2022-12-03T20:49:39.525Z,100961.00
2022-12-03T20:51:43.191Z,100967.88
2022-12-03T20:53:47.253Z,100965.38
2022-12-03T20:56:00.177Z,100958.28
2022-12-03T20:58:02.797Z,100961.06
2022-12-03T21:00:06.462Z,100961.09
2022-12-03T21:02:10.389Z,100956.97
2022-12-03T21:04:18.144Z,100962.19
2022-12-03T21:06:22.662Z,100958.78
2022-12-03T21:08:40.660Z,100952.66
2022-12-03T21:10:46.893Z,100947.72
2022-12-03T21:12:49.457Z,100943.31
2022-12-03T21:14:53.044Z,100942.53
2022-12-03T21:17:08.349Z,100939.09
2022-12-03T21:19:11.606Z,100933.81
2022-12-03T21:21:16.225Z,100936.41
2022-12-03T21:23:18.905Z,100927.56
2022-12-03T21:25:21.857Z,100934.44
2022-12-03T21:27:24.613Z,100940.59
2022-12-03T21:29:27.721Z,100938.94
2022-12-03T21:31:31.848Z,100939.84
2022-12-03T21:33:34.638Z,100942.41
2022-12-03T21:35:38.607Z,100943.91
2022-12-03T21:37:41.353Z,100944.78
2022-12-03T21:39:43.666Z,100946.53
2022-12-03T21:42:19.409Z,100945.69
2022-12-03T21:44:09.955Z,100945.63
2022-12-03T21:47:09.561Z,100938.50
2022-12-03T21:48:37.691Z,100940.19
2022-12-03T21:50:40.283Z,100930.03
2022-12-03T21:52:43.290Z,100928.25
2022-12-03T21:54:46.352Z,100932.03
2022-12-03T21:56:48.927Z,100932.06
2022-12-03T21:58:51.577Z,100931.91
2022-12-03T22:00:54.053Z,100932.84
2022-12-03T22:02:57.237Z,100935.13
2022-12-03T22:04:59.642Z,100935.75
2022-12-03T22:07:02.305Z,100936.66
2022-12-03T22:09:04.925Z,100939.38
2022-12-03T22:11:19.451Z,100935.72
2022-12-03T22:13:21.658Z,100933.06
2022-12-03T22:15:24.243Z,100938.16
2022-12-03T22:17:27.146Z,100941.06
2022-12-03T22:19:29.423Z,100945.87
2022-12-03T22:21:31.934Z,100936.81
2022-12-03T22:23:34.491Z,100931.69
2022-12-03T22:25:36.905Z,100934.31
2022-12-03T22:27:39.455Z,100932.66
2022-12-03T22:29:41.717Z,100931.16
2022-12-03T22:31:43.987Z,100918.97
2022-12-03T22:33:48.504Z,100913.78
2022-12-03T22:35:56.176Z,100912.84
2022-12-03T22:37:58.436Z,100911.28
2022-12-03T22:40:00.982Z,100914.87
2022-12-03T22:42:03.573Z,100906.25
2022-12-03T22:44:05.880Z,100902.56
2022-12-03T22:46:12.923Z,100895.50
2022-12-03T22:48:15.511Z,100903.59
2022-12-03T22:50:17.970Z,100895.66
2022-12-03T22:52:20.700Z,100903.31
2022-12-03T22:54:24.272Z,100906.81
2022-12-03T22:56:28.576Z,100913.06
2022-12-03T22:58:31.754Z,100911.06
2022-12-03T23:00:40.203Z,100909.56
2022-12-03T23:02:42.512Z,100905.78
2022-12-03T23:04:45.099Z,100907.56
2022-12-03T23:06:47.341Z,100905.59
2022-12-03T23:08:50.815Z,100903.75
2022-12-03T23:10:53.380Z,100902.81
2022-12-03T23:12:55.581Z,100911.72
2022-12-03T23:14:57.768Z,100910.91
2022-12-03T23:17:00.450Z,100903.88
2022-12-03T23:19:03.427Z,100905.03
2022-12-03T23:21:05.780Z,100901.94
2022-12-03T23:23:08.262Z,100900.69
2022-12-03T23:25:11.932Z,100901.69
2022-12-03T23:27:14.244Z,100898.25
2022-12-03T23:29:16.755Z,100890.47
2022-12-03T23:31:20.573Z,100891.28
2022-12-03T23:33:23.553Z,100890.50
2022-12-03T23:35:26.026Z,100890.38
2022-12-03T23:37:28.266Z,100882.44
2022-12-03T23:39:30.508Z,100883.31
2022-12-03T23:41:33.120Z,100882.44
2022-12-03T23:43:35.456Z,100882.44
2022-12-03T23:45:37.751Z,100881.53
2022-12-03T23:47:40.201Z,100887.59
2022-12-03T23:49:42.662Z,100890.19
2022-12-03T23:51:44.909Z,100888.66
2022-12-03T23:53:48.064Z,100881.81
2022-12-03T23:55:50.266Z,100882.88
2022-12-03T23:57:52.489Z,100881.34
2022-12-03T23:59:55.138Z,100877.72
